sensor_id;sensor_type;location;lat;lon;timestamp;P1;durP1;ratioP1;P2;durP2;ratioP2
61291;SDS011;47165;42.664;23.368;2022-08-18T00:00:33;5.60;;;3.03;;
61291;SDS011;47165;42.664;23.368;2022-08-18T00:03:04;4.95;;;3.75;;
61291;SDS011;47165;42.664;23.368;2022-08-18T00:05:32;4.35;;;3.10;;
61291;SDS011;47165;42.664;23.368;2022-08-18T00:07:58;5.70;;;3.60;;
61291;SDS011;47165;42.664;23.368;2022-08-18T00:10:23;5.32;;;3.60;;
61291;SDS011;47165;42.664;23.368;2022-08-18T00:12:49;4.65;;;3.42;;
61291;SDS011;47165;42.664;23.368;2022-08-18T00:15:15;5.75;;;3.55;;
61291;SDS011;47165;42.664;23.368;2022-08-18T00:17:41;6.90;;;4.10;;
61291;SDS011;47165;42.664;23.368;2022-08-18T00:20:10;4.32;;;3.53;;
61291;SDS011;47165;42.664;23.368;2022-08-18T00:22:41;6.18;;;4.28;;
61291;SDS011;47165;42.664;23.368;2022-08-18T00:25:08;5.10;;;3.78;;
61291;SDS011;47165;42.664;23.368;2022-08-18T00:27:35;6.63;;;3.97;;
61291;SDS011;47165;42.664;23.368;2022-08-18T00:30:03;6.00;;;4.13;;
61291;SDS011;47165;42.664;23.368;2022-08-18T00:32:32;4.70;;;3.33;;
61291;SDS011;47165;42.664;23.368;2022-08-18T00:35:18;6.03;;;3.55;;
61291;SDS011;47165;42.664;23.368;2022-08-18T00:37:57;5.00;;;3.60;;
61291;SDS011;47165;42.664;23.368;2022-08-18T00:40:27;5.35;;;3.92;;
61291;SDS011;47165;42.664;23.368;2022-08-18T00:42:59;5.07;;;3.28;;
61291;SDS011;47165;42.664;23.368;2022-08-18T00:45:30;6.95;;;3.72;;
61291;SDS011;47165;42.664;23.368;2022-08-18T00:48:00;4.63;;;3.38;;
61291;SDS011;47165;42.664;23.368;2022-08-18T00:50:34;5.75;;;3.67;;
61291;SDS011;47165;42.664;23.368;2022-08-18T00:53:02;4.15;;;3.28;;
61291;SDS011;47165;42.664;23.368;2022-08-18T00:55:31;5.07;;;3.78;;
61291;SDS011;47165;42.664;23.368;2022-08-18T00:57:59;8.60;;;5.05;;
61291;SDS011;47165;42.664;23.368;2022-08-18T01:00:31;5.78;;;3.78;;
61291;SDS011;47165;42.664;23.368;2022-08-18T01:02:59;8.23;;;3.85;;
61291;SDS011;47165;42.664;23.368;2022-08-18T01:05:35;4.97;;;3.13;;
61291;SDS011;47165;42.664;23.368;2022-08-18T01:08:08;5.68;;;3.47;;
61291;SDS011;47165;42.664;23.368;2022-08-18T01:10:38;5.88;;;3.95;;
61291;SDS011;47165;42.664;23.368;2022-08-18T01:13:05;9.05;;;4.30;;
61291;SDS011;47165;42.664;23.368;2022-08-18T01:15:31;9.27;;;4.22;;
61291;SDS011;47165;42.664;23.368;2022-08-18T01:17:58;7.20;;;4.30;;
61291;SDS011;47165;42.664;23.368;2022-08-18T01:23:58;7.45;;;4.93;;
61291;SDS011;47165;42.664;23.368;2022-08-18T01:26:27;7.07;;;4.22;;
61291;SDS011;47165;42.664;23.368;2022-08-18T01:28:54;5.60;;;3.85;;
61291;SDS011;47165;42.664;23.368;2022-08-18T01:34:19;5.43;;;3.42;;
61291;SDS011;47165;42.664;23.368;2022-08-18T01:36:46;6.18;;;3.90;;
61291;SDS011;47165;42.664;23.368;2022-08-18T01:39:12;6.10;;;4.15;;
61291;SDS011;47165;42.664;23.368;2022-08-18T01:41:38;5.85;;;3.13;;
61291;SDS011;47165;42.664;23.368;2022-08-18T01:44:04;8.82;;;3.67;;
61291;SDS011;47165;42.664;23.368;2022-08-18T01:46:33;4.15;;;3.20;;
61291;SDS011;47165;42.664;23.368;2022-08-18T01:48:59;10.00;;;4.10;;
61291;SDS011;47165;42.664;23.368;2022-08-18T01:51:29;8.15;;;4.25;;
61291;SDS011;47165;42.664;23.368;2022-08-18T01:53:56;11.25;;;4.95;;
61291;SDS011;47165;42.664;23.368;2022-08-18T01:56:22;5.05;;;3.80;;
61291;SDS011;47165;42.664;23.368;2022-08-18T01:58:48;5.93;;;3.53;;
61291;SDS011;47165;42.664;23.368;2022-08-18T02:01:13;4.95;;;3.85;;
61291;SDS011;47165;42.664;23.368;2022-08-18T02:03:41;6.00;;;3.80;;
61291;SDS011;47165;42.664;23.368;2022-08-18T02:06:11;6.22;;;4.00;;
61291;SDS011;47165;42.664;23.368;2022-08-18T02:08:39;4.97;;;3.78;;
61291;SDS011;47165;42.664;23.368;2022-08-18T02:11:05;7.25;;;3.80;;
61291;SDS011;47165;42.664;23.368;2022-08-18T02:13:31;6.63;;;3.95;;
61291;SDS011;47165;42.664;23.368;2022-08-18T02:15:57;4.72;;;3.72;;
61291;SDS011;47165;42.664;23.368;2022-08-18T02:18:24;7.55;;;3.45;;
61291;SDS011;47165;42.664;23.368;2022-08-18T02:20:55;7.47;;;3.85;;
61291;SDS011;47165;42.664;23.368;2022-08-18T02:23:22;12.77;;;4.55;;
61291;SDS011;47165;42.664;23.368;2022-08-18T02:25:48;10.40;;;4.07;;
61291;SDS011;47165;42.664;23.368;2022-08-18T02:28:13;5.45;;;3.67;;
61291;SDS011;47165;42.664;23.368;2022-08-18T02:30:40;5.43;;;4.60;;
61291;SDS011;47165;42.664;23.368;2022-08-18T02:33:06;7.68;;;4.40;;
61291;SDS011;47165;42.664;23.368;2022-08-18T02:35:33;8.18;;;4.88;;
61291;SDS011;47165;42.664;23.368;2022-08-18T02:38:00;5.63;;;3.95;;
61291;SDS011;47165;42.664;23.368;2022-08-18T02:40:29;6.55;;;4.43;;
61291;SDS011;47165;42.664;23.368;2022-08-18T02:42:58;9.50;;;4.13;;
61291;SDS011;47165;42.664;23.368;2022-08-18T02:45:24;10.02;;;4.88;;
61291;SDS011;47165;42.664;23.368;2022-08-18T02:47:53;10.48;;;5.70;;
61291;SDS011;47165;42.664;23.368;2022-08-18T02:50:19;7.00;;;4.00;;
61291;SDS011;47165;42.664;23.368;2022-08-18T02:52:45;7.07;;;4.07;;
61291;SDS011;47165;42.664;23.368;2022-08-18T02:55:11;6.40;;;4.40;;
61291;SDS011;47165;42.664;23.368;2022-08-18T02:57:41;6.38;;;3.83;;
61291;SDS011;47165;42.664;23.368;2022-08-18T03:00:12;6.43;;;3.97;;
61291;SDS011;47165;42.664;23.368;2022-08-18T03:02:40;6.90;;;3.90;;
61291;SDS011;47165;42.664;23.368;2022-08-18T03:05:10;7.47;;;4.63;;
61291;SDS011;47165;42.664;23.368;2022-08-18T03:07:35;7.70;;;3.78;;
61291;SDS011;47165;42.664;23.368;2022-08-18T03:10:01;5.22;;;3.38;;
61291;SDS011;47165;42.664;23.368;2022-08-18T03:12:26;8.13;;;3.92;;
61291;SDS011;47165;42.664;23.368;2022-08-18T03:14:51;7.47;;;4.60;;
61291;SDS011;47165;42.664;23.368;2022-08-18T03:17:17;8.93;;;4.43;;
61291;SDS011;47165;42.664;23.368;2022-08-18T03:19:42;6.30;;;3.50;;
61291;SDS011;47165;42.664;23.368;2022-08-18T03:22:09;6.80;;;3.85;;
61291;SDS011;47165;42.664;23.368;2022-08-18T03:24:35;10.73;;;6.15;;
61291;SDS011;47165;42.664;23.368;2022-08-18T03:27:03;8.15;;;5.57;;
61291;SDS011;47165;42.664;23.368;2022-08-18T03:29:30;8.93;;;4.00;;
61291;SDS011;47165;42.664;23.368;2022-08-18T03:31:55;7.93;;;4.88;;
61291;SDS011;47165;42.664;23.368;2022-08-18T03:34:21;8.25;;;5.88;;
61291;SDS011;47165;42.664;23.368;2022-08-18T03:36:47;8.10;;;5.63;;
61291;SDS011;47165;42.664;23.368;2022-08-18T03:39:14;6.75;;;4.25;;
61291;SDS011;47165;42.664;23.368;2022-08-18T03:41:41;8.55;;;4.43;;
61291;SDS011;47165;42.664;23.368;2022-08-18T03:44:09;7.63;;;4.05;;
61291;SDS011;47165;42.664;23.368;2022-08-18T03:46:36;5.68;;;3.80;;
61291;SDS011;47165;42.664;23.368;2022-08-18T03:49:02;6.03;;;4.38;;
61291;SDS011;47165;42.664;23.368;2022-08-18T03:51:29;8.32;;;4.93;;
61291;SDS011;47165;42.664;23.368;2022-08-18T03:53:57;6.38;;;4.45;;
61291;SDS011;47165;42.664;23.368;2022-08-18T03:56:25;6.68;;;5.15;;
61291;SDS011;47165;42.664;23.368;2022-08-18T03:58:58;7.78;;;4.18;;
61291;SDS011;47165;42.664;23.368;2022-08-18T04:01:28;9.93;;;5.00;;
61291;SDS011;47165;42.664;23.368;2022-08-18T04:03:57;8.45;;;4.85;;
61291;SDS011;47165;42.664;23.368;2022-08-18T04:06:27;9.88;;;5.45;;
61291;SDS011;47165;42.664;23.368;2022-08-18T04:08:57;7.22;;;4.53;;
61291;SDS011;47165;42.664;23.368;2022-08-18T04:11:24;6.38;;;4.65;;
61291;SDS011;47165;42.664;23.368;2022-08-18T04:13:52;8.82;;;5.10;;
61291;SDS011;47165;42.664;23.368;2022-08-18T04:16:18;8.23;;;5.43;;
61291;SDS011;47165;42.664;23.368;2022-08-18T04:18:44;10.75;;;5.38;;
61291;SDS011;47165;42.664;23.368;2022-08-18T04:21:10;6.13;;;4.35;;
61291;SDS011;47165;42.664;23.368;2022-08-18T04:23:38;9.63;;;5.43;;
61291;SDS011;47165;42.664;23.368;2022-08-18T04:26:06;12.95;;;6.05;;
61291;SDS011;47165;42.664;23.368;2022-08-18T04:28:33;8.60;;;6.15;;
61291;SDS011;47165;42.664;23.368;2022-08-18T04:31:04;9.43;;;6.40;;
61291;SDS011;47165;42.664;23.368;2022-08-18T04:33:31;11.15;;;5.45;;
61291;SDS011;47165;42.664;23.368;2022-08-18T04:35:56;9.68;;;6.05;;
61291;SDS011;47165;42.664;23.368;2022-08-18T04:38:21;9.73;;;5.88;;
61291;SDS011;47165;42.664;23.368;2022-08-18T04:40:48;7.82;;;5.53;;
61291;SDS011;47165;42.664;23.368;2022-08-18T04:43:14;8.48;;;5.22;;
61291;SDS011;47165;42.664;23.368;2022-08-18T04:45:40;7.97;;;5.75;;
61291;SDS011;47165;42.664;23.368;2022-08-18T04:48:06;8.57;;;5.88;;
61291;SDS011;47165;42.664;23.368;2022-08-18T04:50:32;11.30;;;6.60;;
61291;SDS011;47165;42.664;23.368;2022-08-18T04:52:57;9.02;;;5.80;;
61291;SDS011;47165;42.664;23.368;2022-08-18T04:55:48;9.13;;;6.10;;
61291;SDS011;47165;42.664;23.368;2022-08-18T05:00:43;8.45;;;5.07;;
61291;SDS011;47165;42.664;23.368;2022-08-18T05:03:09;9.18;;;6.13;;
61291;SDS011;47165;42.664;23.368;2022-08-18T05:05:35;10.32;;;6.70;;
61291;SDS011;47165;42.664;23.368;2022-08-18T05:08:00;12.30;;;5.63;;
61291;SDS011;47165;42.664;23.368;2022-08-18T05:10:26;10.40;;;6.90;;
61291;SDS011;47165;42.664;23.368;2022-08-18T05:12:51;11.05;;;6.28;;
61291;SDS011;47165;42.664;23.368;2022-08-18T05:15:17;9.57;;;5.78;;
61291;SDS011;47165;42.664;23.368;2022-08-18T05:17:43;8.57;;;6.05;;
61291;SDS011;47165;42.664;23.368;2022-08-18T05:20:09;8.82;;;5.38;;
61291;SDS011;47165;42.664;23.368;2022-08-18T05:22:36;10.32;;;6.50;;
61291;SDS011;47165;42.664;23.368;2022-08-18T05:25:07;9.10;;;6.13;;
61291;SDS011;47165;42.664;23.368;2022-08-18T05:27:35;9.88;;;7.32;;
61291;SDS011;47165;42.664;23.368;2022-08-18T05:30:02;8.82;;;5.63;;
61291;SDS011;47165;42.664;23.368;2022-08-18T05:32:32;12.60;;;6.00;;
61291;SDS011;47165;42.664;23.368;2022-08-18T05:35:01;12.25;;;6.88;;
61291;SDS011;47165;42.664;23.368;2022-08-18T05:37:38;8.93;;;6.00;;
61291;SDS011;47165;42.664;23.368;2022-08-18T05:40:20;14.10;;;7.45;;
61291;SDS011;47165;42.664;23.368;2022-08-18T05:42:48;8.98;;;6.88;;
61291;SDS011;47165;42.664;23.368;2022-08-18T05:45:16;13.10;;;7.82;;
61291;SDS011;47165;42.664;23.368;2022-08-18T05:47:42;10.02;;;6.85;;
61291;SDS011;47165;42.664;23.368;2022-08-18T05:50:13;14.10;;;7.28;;
61291;SDS011;47165;42.664;23.368;2022-08-18T05:58:41;9.63;;;6.70;;
61291;SDS011;47165;42.664;23.368;2022-08-18T06:01:21;12.90;;;7.05;;
61291;SDS011;47165;42.664;23.368;2022-08-18T06:04:04;8.85;;;6.28;;
61291;SDS011;47165;42.664;23.368;2022-08-18T06:06:35;10.73;;;6.75;;
61291;SDS011;47165;42.664;23.368;2022-08-18T06:09:20;11.63;;;7.35;;
61291;SDS011;47165;42.664;23.368;2022-08-18T06:11:54;10.10;;;7.22;;
61291;SDS011;47165;42.664;23.368;2022-08-18T06:14:29;9.60;;;6.57;;
61291;SDS011;47165;42.664;23.368;2022-08-18T06:16:58;10.45;;;6.68;;
61291;SDS011;47165;42.664;23.368;2022-08-18T06:25:29;9.75;;;6.32;;
61291;SDS011;47165;42.664;23.368;2022-08-18T06:28:19;9.50;;;5.72;;
61291;SDS011;47165;42.664;23.368;2022-08-18T06:36:33;11.20;;;7.88;;
61291;SDS011;47165;42.664;23.368;2022-08-18T06:39:38;11.25;;;7.38;;
61291;SDS011;47165;42.664;23.368;2022-08-18T06:42:10;15.80;;;7.75;;
61291;SDS011;47165;42.664;23.368;2022-08-18T06:44:40;9.60;;;6.43;;
61291;SDS011;47165;42.664;23.368;2022-08-18T06:50:05;9.10;;;6.25;;
61291;SDS011;47165;42.664;23.368;2022-08-18T06:52:32;10.25;;;6.93;;
61291;SDS011;47165;42.664;23.368;2022-08-18T06:55:04;13.57;;;7.57;;
61291;SDS011;47165;42.664;23.368;2022-08-18T06:57:38;13.52;;;7.55;;
61291;SDS011;47165;42.664;23.368;2022-08-18T07:02:44;11.75;;;7.05;;
61291;SDS011;47165;42.664;23.368;2022-08-18T07:05:19;11.52;;;7.63;;
61291;SDS011;47165;42.664;23.368;2022-08-18T07:07:59;9.48;;;7.13;;
61291;SDS011;47165;42.664;23.368;2022-08-18T07:13:37;12.38;;;6.43;;
61291;SDS011;47165;42.664;23.368;2022-08-18T07:18:22;8.52;;;5.40;;
61291;SDS011;47165;42.664;23.368;2022-08-18T07:20:54;13.18;;;6.93;;
61291;SDS011;47165;42.664;23.368;2022-08-18T07:25:52;9.25;;;5.68;;
61291;SDS011;47165;42.664;23.368;2022-08-18T07:28:28;9.73;;;5.82;;
61291;SDS011;47165;42.664;23.368;2022-08-18T07:31:11;6.40;;;5.00;;
61291;SDS011;47165;42.664;23.368;2022-08-18T07:33:45;6.32;;;4.63;;
61291;SDS011;47165;42.664;23.368;2022-08-18T07:36:19;6.93;;;4.72;;
61291;SDS011;47165;42.664;23.368;2022-08-18T07:38:52;10.75;;;6.07;;
61291;SDS011;47165;42.664;23.368;2022-08-18T07:41:40;7.45;;;5.28;;
61291;SDS011;47165;42.664;23.368;2022-08-18T07:44:16;7.25;;;5.20;;
61291;SDS011;47165;42.664;23.368;2022-08-18T07:47:02;8.88;;;6.10;;
61291;SDS011;47165;42.664;23.368;2022-08-18T07:49:31;8.82;;;5.18;;
61291;SDS011;47165;42.664;23.368;2022-08-18T07:54:33;8.90;;;5.35;;
61291;SDS011;47165;42.664;23.368;2022-08-18T08:08:15;6.80;;;5.13;;
61291;SDS011;47165;42.664;23.368;2022-08-18T08:10:47;7.53;;;4.75;;
61291;SDS011;47165;42.664;23.368;2022-08-18T08:16:03;4.65;;;4.15;;
61291;SDS011;47165;42.664;23.368;2022-08-18T08:18:53;9.23;;;4.63;;
61291;SDS011;47165;42.664;23.368;2022-08-18T08:21:32;7.80;;;4.18;;
61291;SDS011;47165;42.664;23.368;2022-08-18T08:24:22;7.68;;;5.15;;
61291;SDS011;47165;42.664;23.368;2022-08-18T08:29:59;6.53;;;3.85;;
61291;SDS011;47165;42.664;23.368;2022-08-18T08:34:59;7.70;;;3.50;;
61291;SDS011;47165;42.664;23.368;2022-08-18T08:43:24;5.15;;;3.47;;
61291;SDS011;47165;42.664;23.368;2022-08-18T08:50:58;4.90;;;3.70;;
61291;SDS011;47165;42.664;23.368;2022-08-18T08:53:28;7.28;;;3.88;;
61291;SDS011;47165;42.664;23.368;2022-08-18T08:56:01;5.40;;;3.78;;
61291;SDS011;47165;42.664;23.368;2022-08-18T09:01:22;5.88;;;3.53;;
61291;SDS011;47165;42.664;23.368;2022-08-18T09:03:58;4.75;;;3.90;;
61291;SDS011;47165;42.664;23.368;2022-08-18T09:06:46;4.63;;;3.90;;
61291;SDS011;47165;42.664;23.368;2022-08-18T09:12:19;5.65;;;4.05;;
61291;SDS011;47165;42.664;23.368;2022-08-18T09:17:49;3.90;;;3.10;;
61291;SDS011;47165;42.664;23.368;2022-08-18T09:23:12;4.78;;;3.85;;
61291;SDS011;47165;42.664;23.368;2022-08-18T09:25:46;5.40;;;3.63;;
61291;SDS011;47165;42.664;23.368;2022-08-18T09:28:17;6.75;;;3.55;;
61291;SDS011;47165;42.664;23.368;2022-08-18T09:36:29;5.55;;;3.70;;
61291;SDS011;47165;42.664;23.368;2022-08-18T09:39:11;3.55;;;2.95;;
61291;SDS011;47165;42.664;23.368;2022-08-18T09:42:14;4.22;;;3.45;;
61291;SDS011;47165;42.664;23.368;2022-08-18T09:47:10;6.03;;;3.08;;
61291;SDS011;47165;42.664;23.368;2022-08-18T09:55:00;4.07;;;3.38;;
61291;SDS011;47165;42.664;23.368;2022-08-18T09:57:30;6.78;;;4.13;;
61291;SDS011;47165;42.664;23.368;2022-08-18T10:05:39;5.60;;;3.45;;
61291;SDS011;47165;42.664;23.368;2022-08-18T10:07:40;4.95;;;3.55;;
61291;SDS011;47165;42.664;23.368;2022-08-18T10:15:31;4.47;;;3.38;;
61291;SDS011;47165;42.664;23.368;2022-08-18T10:31:24;4.00;;;3.28;;
61291;SDS011;47165;42.664;23.368;2022-08-18T10:33:59;3.55;;;3.08;;
61291;SDS011;47165;42.664;23.368;2022-08-18T10:36:36;6.35;;;3.35;;
61291;SDS011;47165;42.664;23.368;2022-08-18T10:39:12;6.65;;;3.42;;
61291;SDS011;47165;42.664;23.368;2022-08-18T10:42:05;4.53;;;3.13;;
61291;SDS011;47165;42.664;23.368;2022-08-18T10:44:39;7.65;;;3.85;;
61291;SDS011;47165;42.664;23.368;2022-08-18T10:47:18;3.55;;;3.20;;
61291;SDS011;47165;42.664;23.368;2022-08-18T10:49:54;6.13;;;3.17;;
61291;SDS011;47165;42.664;23.368;2022-08-18T10:57:32;5.95;;;3.50;;
61291;SDS011;47165;42.664;23.368;2022-08-18T11:00:37;4.65;;;3.33;;
61291;SDS011;47165;42.664;23.368;2022-08-18T11:06:19;4.75;;;2.80;;
61291;SDS011;47165;42.664;23.368;2022-08-18T11:08:49;8.13;;;3.13;;
61291;SDS011;47165;42.664;23.368;2022-08-18T11:11:22;7.40;;;3.10;;
61291;SDS011;47165;42.664;23.368;2022-08-18T11:19:22;5.15;;;3.10;;
61291;SDS011;47165;42.664;23.368;2022-08-18T11:21:49;3.35;;;2.67;;
61291;SDS011;47165;42.664;23.368;2022-08-18T11:29:18;4.90;;;3.13;;
61291;SDS011;47165;42.664;23.368;2022-08-18T11:34:43;4.30;;;3.30;;
61291;SDS011;47165;42.664;23.368;2022-08-18T11:37:25;4.05;;;3.35;;
61291;SDS011;47165;42.664;23.368;2022-08-18T11:39:56;5.65;;;3.60;;
61291;SDS011;47165;42.664;23.368;2022-08-18T11:42:28;3.60;;;3.03;;
61291;SDS011;47165;42.664;23.368;2022-08-18T11:45:06;6.00;;;3.53;;
61291;SDS011;47165;42.664;23.368;2022-08-18T11:58:48;8.15;;;3.72;;
61291;SDS011;47165;42.664;23.368;2022-08-18T12:01:28;4.03;;;3.33;;
61291;SDS011;47165;42.664;23.368;2022-08-18T12:06:56;4.85;;;2.95;;
61291;SDS011;47165;42.664;23.368;2022-08-18T12:14:57;4.25;;;3.08;;
61291;SDS011;47165;42.664;23.368;2022-08-18T12:19:49;8.65;;;2.60;;
61291;SDS011;47165;42.664;23.368;2022-08-18T12:22:16;4.78;;;3.13;;
61291;SDS011;47165;42.664;23.368;2022-08-18T12:24:45;4.18;;;2.50;;
61291;SDS011;47165;42.664;23.368;2022-08-18T12:27:12;4.95;;;3.00;;
61291;SDS011;47165;42.664;23.368;2022-08-18T12:29:39;3.60;;;2.60;;
61291;SDS011;47165;42.664;23.368;2022-08-18T12:32:05;4.35;;;2.40;;
61291;SDS011;47165;42.664;23.368;2022-08-18T12:34:31;5.00;;;3.08;;
61291;SDS011;47165;42.664;23.368;2022-08-18T12:36:57;2.83;;;2.50;;
61291;SDS011;47165;42.664;23.368;2022-08-18T12:39:27;4.90;;;2.80;;
61291;SDS011;47165;42.664;23.368;2022-08-18T12:41:54;3.10;;;2.42;;
61291;SDS011;47165;42.664;23.368;2022-08-18T12:44:21;6.10;;;2.30;;
61291;SDS011;47165;42.664;23.368;2022-08-18T12:46:46;3.05;;;2.58;;
61291;SDS011;47165;42.664;23.368;2022-08-18T12:49:17;3.70;;;2.40;;
61291;SDS011;47165;42.664;23.368;2022-08-18T12:51:45;5.03;;;3.05;;
61291;SDS011;47165;42.664;23.368;2022-08-18T12:54:11;3.10;;;2.20;;
61291;SDS011;47165;42.664;23.368;2022-08-18T12:56:37;3.90;;;2.70;;
61291;SDS011;47165;42.664;23.368;2022-08-18T12:59:05;2.95;;;2.10;;
61291;SDS011;47165;42.664;23.368;2022-08-18T13:01:34;3.42;;;1.92;;
61291;SDS011;47165;42.664;23.368;2022-08-18T13:04:01;3.67;;;2.40;;
61291;SDS011;47165;42.664;23.368;2022-08-18T13:06:28;2.65;;;2.42;;
61291;SDS011;47165;42.664;23.368;2022-08-18T13:08:55;2.92;;;2.50;;
61291;SDS011;47165;42.664;23.368;2022-08-18T13:11:21;4.25;;;2.17;;
61291;SDS011;47165;42.664;23.368;2022-08-18T13:13:48;2.78;;;2.20;;
61291;SDS011;47165;42.664;23.368;2022-08-18T13:16:14;6.53;;;2.45;;
61291;SDS011;47165;42.664;23.368;2022-08-18T13:18:40;4.70;;;3.00;;
61291;SDS011;47165;42.664;23.368;2022-08-18T13:21:07;3.03;;;2.58;;
61291;SDS011;47165;42.664;23.368;2022-08-18T13:23:34;3.28;;;2.53;;
61291;SDS011;47165;42.664;23.368;2022-08-18T13:26:01;4.45;;;2.58;;
61291;SDS011;47165;42.664;23.368;2022-08-18T13:28:29;4.82;;;2.97;;
61291;SDS011;47165;42.664;23.368;2022-08-18T13:30:56;3.13;;;2.83;;
61291;SDS011;47165;42.664;23.368;2022-08-18T13:33:22;7.43;;;2.72;;
61291;SDS011;47165;42.664;23.368;2022-08-18T13:35:50;2.75;;;2.00;;
61291;SDS011;47165;42.664;23.368;2022-08-18T13:38:17;4.55;;;2.47;;
61291;SDS011;47165;42.664;23.368;2022-08-18T13:40:44;4.82;;;2.88;;
61291;SDS011;47165;42.664;23.368;2022-08-18T13:43:12;4.63;;;2.08;;
61291;SDS011;47165;42.664;23.368;2022-08-18T13:45:39;9.80;;;2.60;;
61291;SDS011;47165;42.664;23.368;2022-08-18T13:48:07;3.45;;;2.70;;
61291;SDS011;47165;42.664;23.368;2022-08-18T13:50:32;4.45;;;2.67;;
61291;SDS011;47165;42.664;23.368;2022-08-18T13:52:58;4.93;;;2.65;;
61291;SDS011;47165;42.664;23.368;2022-08-18T13:55:26;7.53;;;2.95;;
61291;SDS011;47165;42.664;23.368;2022-08-18T13:57:53;3.97;;;2.50;;
61291;SDS011;47165;42.664;23.368;2022-08-18T14:00:20;3.13;;;2.42;;
61291;SDS011;47165;42.664;23.368;2022-08-18T14:02:48;3.53;;;2.70;;
61291;SDS011;47165;42.664;23.368;2022-08-18T14:05:18;6.05;;;3.05;;
61291;SDS011;47165;42.664;23.368;2022-08-18T14:07:44;5.10;;;3.45;;
61291;SDS011;47165;42.664;23.368;2022-08-18T14:10:11;4.53;;;2.90;;
61291;SDS011;47165;42.664;23.368;2022-08-18T14:12:37;5.53;;;3.28;;
61291;SDS011;47165;42.664;23.368;2022-08-18T14:15:06;2.63;;;2.42;;
61291;SDS011;47165;42.664;23.368;2022-08-18T14:17:33;3.40;;;2.50;;
61291;SDS011;47165;42.664;23.368;2022-08-18T14:19:59;4.90;;;2.83;;
61291;SDS011;47165;42.664;23.368;2022-08-18T14:22:44;2.95;;;2.53;;
61291;SDS011;47165;42.664;23.368;2022-08-18T14:25:28;4.85;;;3.22;;
61291;SDS011;47165;42.664;23.368;2022-08-18T14:28:12;3.90;;;2.83;;
61291;SDS011;47165;42.664;23.368;2022-08-18T14:30:43;6.95;;;2.70;;
61291;SDS011;47165;42.664;23.368;2022-08-18T14:33:10;6.13;;;2.60;;
61291;SDS011;47165;42.664;23.368;2022-08-18T14:35:39;4.80;;;3.03;;
61291;SDS011;47165;42.664;23.368;2022-08-18T14:38:04;3.22;;;2.83;;
61291;SDS011;47165;42.664;23.368;2022-08-18T14:40:32;5.30;;;3.28;;
61291;SDS011;47165;42.664;23.368;2022-08-18T14:42:58;4.78;;;2.78;;
61291;SDS011;47165;42.664;23.368;2022-08-18T14:45:26;3.83;;;2.90;;
61291;SDS011;47165;42.664;23.368;2022-08-18T14:47:53;6.47;;;2.63;;
61291;SDS011;47165;42.664;23.368;2022-08-18T14:50:19;5.93;;;3.10;;
61291;SDS011;47165;42.664;23.368;2022-08-18T14:52:45;4.05;;;3.00;;
61291;SDS011;47165;42.664;23.368;2022-08-18T14:55:12;3.75;;;2.70;;
61291;SDS011;47165;42.664;23.368;2022-08-18T14:57:39;3.38;;;3.00;;
61291;SDS011;47165;42.664;23.368;2022-08-18T15:00:08;3.33;;;2.78;;
61291;SDS011;47165;42.664;23.368;2022-08-18T15:02:37;5.22;;;3.28;;
61291;SDS011;47165;42.664;23.368;2022-08-18T15:05:04;3.35;;;3.05;;
61291;SDS011;47165;42.664;23.368;2022-08-18T15:07:31;3.08;;;2.78;;
61291;SDS011;47165;42.664;23.368;2022-08-18T15:09:56;3.90;;;2.92;;
61291;SDS011;47165;42.664;23.368;2022-08-18T15:12:23;8.55;;;3.42;;
61291;SDS011;47165;42.664;23.368;2022-08-18T15:14:49;7.82;;;3.08;;
61291;SDS011;47165;42.664;23.368;2022-08-18T15:17:15;6.22;;;3.03;;
61291;SDS011;47165;42.664;23.368;2022-08-18T15:19:40;5.68;;;3.25;;
61291;SDS011;47165;42.664;23.368;2022-08-18T15:22:08;6.63;;;3.35;;
61291;SDS011;47165;42.664;23.368;2022-08-18T15:24:52;3.60;;;2.83;;
61291;SDS011;47165;42.664;23.368;2022-08-18T15:27:36;3.83;;;2.67;;
61291;SDS011;47165;42.664;23.368;2022-08-18T15:30:04;5.65;;;3.10;;
61291;SDS011;47165;42.664;23.368;2022-08-18T15:32:32;4.75;;;3.25;;
61291;SDS011;47165;42.664;23.368;2022-08-18T15:34:57;4.50;;;3.60;;
61291;SDS011;47165;42.664;23.368;2022-08-18T15:37:23;6.72;;;3.65;;
61291;SDS011;47165;42.664;23.368;2022-08-18T15:39:48;3.97;;;2.72;;
61291;SDS011;47165;42.664;23.368;2022-08-18T15:42:14;5.20;;;4.10;;
61291;SDS011;47165;42.664;23.368;2022-08-18T15:44:39;4.43;;;3.40;;
61291;SDS011;47165;42.664;23.368;2022-08-18T15:47:04;3.72;;;3.28;;
61291;SDS011;47165;42.664;23.368;2022-08-18T15:49:31;5.25;;;3.35;;
61291;SDS011;47165;42.664;23.368;2022-08-18T15:51:57;5.30;;;3.38;;
61291;SDS011;47165;42.664;23.368;2022-08-18T15:54:22;4.30;;;3.85;;
61291;SDS011;47165;42.664;23.368;2022-08-18T15:56:47;4.13;;;3.25;;
61291;SDS011;47165;42.664;23.368;2022-08-18T15:59:13;4.65;;;3.72;;
61291;SDS011;47165;42.664;23.368;2022-08-18T16:01:39;5.65;;;3.45;;
61291;SDS011;47165;42.664;23.368;2022-08-18T16:04:05;4.75;;;3.70;;
61291;SDS011;47165;42.664;23.368;2022-08-18T16:06:32;4.70;;;3.53;;
61291;SDS011;47165;42.664;23.368;2022-08-18T16:09:01;6.60;;;3.72;;
61291;SDS011;47165;42.664;23.368;2022-08-18T16:11:28;3.83;;;3.35;;
61291;SDS011;47165;42.664;23.368;2022-08-18T16:13:53;5.25;;;3.85;;
61291;SDS011;47165;42.664;23.368;2022-08-18T16:16:20;4.45;;;3.38;;
61291;SDS011;47165;42.664;23.368;2022-08-18T16:18:47;4.57;;;3.50;;
61291;SDS011;47165;42.664;23.368;2022-08-18T16:21:15;4.80;;;3.50;;
61291;SDS011;47165;42.664;23.368;2022-08-18T16:23:44;3.67;;;3.15;;
61291;SDS011;47165;42.664;23.368;2022-08-18T16:26:12;4.28;;;3.40;;
61291;SDS011;47165;42.664;23.368;2022-08-18T16:28:40;5.32;;;3.55;;
61291;SDS011;47165;42.664;23.368;2022-08-18T16:31:10;5.50;;;3.60;;
61291;SDS011;47165;42.664;23.368;2022-08-18T16:33:39;5.20;;;3.72;;
61291;SDS011;47165;42.664;23.368;2022-08-18T16:36:07;4.05;;;3.65;;
61291;SDS011;47165;42.664;23.368;2022-08-18T16:38:34;3.95;;;3.42;;
61291;SDS011;47165;42.664;23.368;2022-08-18T16:41:05;4.78;;;3.60;;
61291;SDS011;47165;42.664;23.368;2022-08-18T16:43:41;3.83;;;3.50;;
61291;SDS011;47165;42.664;23.368;2022-08-18T16:46:19;5.65;;;3.55;;
61291;SDS011;47165;42.664;23.368;2022-08-18T16:48:48;6.40;;;3.97;;
61291;SDS011;47165;42.664;23.368;2022-08-18T16:51:15;4.38;;;3.25;;
61291;SDS011;47165;42.664;23.368;2022-08-18T16:53:44;7.63;;;4.32;;
61291;SDS011;47165;42.664;23.368;2022-08-18T16:56:15;4.80;;;3.72;;
61291;SDS011;47165;42.664;23.368;2022-08-18T16:58:43;6.05;;;3.78;;
61291;SDS011;47165;42.664;23.368;2022-08-18T17:01:27;4.55;;;3.38;;
61291;SDS011;47165;42.664;23.368;2022-08-18T17:04:11;6.47;;;3.72;;
61291;SDS011;47165;42.664;23.368;2022-08-18T17:06:38;7.05;;;4.35;;
61291;SDS011;47165;42.664;23.368;2022-08-18T17:09:04;5.85;;;3.67;;
61291;SDS011;47165;42.664;23.368;2022-08-18T17:11:31;4.85;;;3.50;;
61291;SDS011;47165;42.664;23.368;2022-08-18T17:13:58;6.18;;;3.75;;
61291;SDS011;47165;42.664;23.368;2022-08-18T17:16:25;6.78;;;4.00;;
61291;SDS011;47165;42.664;23.368;2022-08-18T17:18:52;4.82;;;3.78;;
61291;SDS011;47165;42.664;23.368;2022-08-18T17:21:20;6.00;;;4.00;;
61291;SDS011;47165;42.664;23.368;2022-08-18T17:23:48;6.18;;;4.53;;
61291;SDS011;47165;42.664;23.368;2022-08-18T17:29:21;6.30;;;4.63;;
61291;SDS011;47165;42.664;23.368;2022-08-18T17:31:55;5.30;;;3.92;;
61291;SDS011;47165;42.664;23.368;2022-08-18T17:34:30;6.45;;;4.32;;
61291;SDS011;47165;42.664;23.368;2022-08-18T17:36:59;4.93;;;3.60;;